createdAt,value
2022-11-27T00:01:13.201Z,81.84
2022-11-27T00:03:15.354Z,82.45
2022-11-27T00:05:17.629Z,82.08
2022-11-27T00:07:19.853Z,82.50
2022-11-27T00:09:21.857Z,82.26
2022-11-27T00:11:25.900Z,82.35
2022-11-27T00:13:27.793Z,81.83
2022-11-27T00:15:29.690Z,82.06
2022-11-27T00:17:31.616Z,82.02
2022-11-27T00:19:33.702Z,82.37
2022-11-27T00:21:36.586Z,82.62
2022-11-27T00:23:38.644Z,82.83
2022-11-27T00:25:40.609Z,82.26
2022-11-27T00:27:42.509Z,82.18
2022-11-27T00:29:44.458Z,82.21
2022-11-27T00:31:46.384Z,82.35
2022-11-27T00:33:48.650Z,82.42
2022-11-27T00:35:51.544Z,82.38
2022-11-27T00:37:53.373Z,82.35
2022-11-27T00:39:55.314Z,82.69
2022-11-27T00:41:57.186Z,82.38
2022-11-27T00:43:59.507Z,82.50
2022-11-27T00:46:01.502Z,82.77
2022-11-27T00:48:03.502Z,82.39
2022-11-27T00:50:06.024Z,82.57
2022-11-27T00:52:07.999Z,82.68
2022-11-27T00:54:10.049Z,82.50
2022-11-27T00:56:18.084Z,82.27
2022-11-27T00:58:20.138Z,82.43
2022-11-27T01:00:23.366Z,82.46
2022-11-27T01:02:25.483Z,82.56
2022-11-27T01:04:28.357Z,82.91
2022-11-27T01:06:30.647Z,82.46
2022-11-27T01:08:33.271Z,82.55
2022-11-27T01:10:35.137Z,82.69
2022-11-27T01:12:37.008Z,82.44
2022-11-27T01:14:39.126Z,82.51
2022-11-27T01:16:43.357Z,82.11
2022-11-27T01:18:48.139Z,82.19
2022-11-27T01:20:53.085Z,82.42
2022-11-27T01:22:54.887Z,82.59
2022-11-27T01:24:56.769Z,82.69
2022-11-27T01:26:58.580Z,82.63
2022-11-27T01:29:00.710Z,83.24
2022-11-27T01:31:12.874Z,82.76
2022-11-27T01:33:15.086Z,83.13
2022-11-27T01:35:16.977Z,83.28
2022-11-27T01:37:18.781Z,83.09
2022-11-27T01:39:21.837Z,83.18
2022-11-27T01:41:35.625Z,82.65
2022-11-27T01:43:37.374Z,83.12
2022-11-27T01:45:39.247Z,82.62
2022-11-27T01:48:03.377Z,83.02
2022-11-27T01:50:17.125Z,83.27
2022-11-27T01:52:27.431Z,82.79
2022-11-27T01:54:34.763Z,83.05
2022-11-27T01:56:37.283Z,82.69
2022-11-27T01:58:39.894Z,82.88
2022-11-27T02:00:42.088Z,83.29
2022-11-27T02:02:45.125Z,83.05
2022-11-27T02:04:46.962Z,83.36
2022-11-27T02:06:48.791Z,83.09
2022-11-27T02:08:52.999Z,83.27
2022-11-27T02:11:19.670Z,83.51
2022-11-27T02:13:27.233Z,83.62
2022-11-27T02:15:46.959Z,83.42
2022-11-27T02:17:52.814Z,83.11
2022-11-27T02:20:28.898Z,83.40
2022-11-27T02:22:50.299Z,83.42
2022-11-27T02:25:26.794Z,83.63
2022-11-27T02:27:43.877Z,83.58
2022-11-27T02:29:50.177Z,83.47
2022-11-27T02:31:58.373Z,83.50
2022-11-27T02:34:23.529Z,83.40
2022-11-27T02:36:32.095Z,83.56
2022-11-27T02:38:44.852Z,83.24
2022-11-27T02:41:14.045Z,83.31
2022-11-27T02:43:21.878Z,83.48
2022-11-27T02:45:34.907Z,83.71
2022-11-27T02:47:40.222Z,83.25
2022-11-27T02:49:44.227Z,83.56
2022-11-27T02:51:59.240Z,83.37
2022-11-27T02:54:05.774Z,83.63
2022-11-27T02:56:11.713Z,83.54
2022-11-27T02:58:18.060Z,83.61
2022-11-27T03:00:20.199Z,83.39
2022-11-27T03:02:28.628Z,83.52
2022-11-27T03:04:36.955Z,83.53
2022-11-27T03:06:48.387Z,83.54
2022-11-27T03:08:56.613Z,83.17
2022-11-27T03:11:06.098Z,83.34
2022-11-27T03:13:08.004Z,83.26
2022-11-27T03:15:10.395Z,83.08
2022-11-27T03:17:30.915Z,83.37
2022-11-27T03:19:54.259Z,83.21
2022-11-27T03:21:58.535Z,82.98
2022-11-27T03:24:00.837Z,82.75
2022-11-27T03:26:02.719Z,82.88
2022-11-27T03:28:10.670Z,82.97
2022-11-27T03:30:13.139Z,82.98
2022-11-27T03:32:15.287Z,82.79
2022-11-27T03:34:18.281Z,82.78
2022-11-27T03:36:22.101Z,83.03
2022-11-27T03:38:23.990Z,82.62
2022-11-27T03:40:34.030Z,82.87
2022-11-27T03:42:56.694Z,82.59
2022-11-27T03:45:04.582Z,82.53
2022-11-27T03:47:28.081Z,82.71
2022-11-27T03:49:39.892Z,82.55
2022-11-27T03:52:08.046Z,82.57
2022-11-27T03:54:35.800Z,82.48
2022-11-27T03:56:49.030Z,82.51
2022-11-27T03:58:59.204Z,82.46
2022-11-27T04:01:03.628Z,82.73
2022-11-27T04:03:05.635Z,82.38
2022-11-27T04:05:07.952Z,82.24
2022-11-27T04:07:17.274Z,82.87
2022-11-27T04:09:19.198Z,82.50
2022-11-27T04:11:21.032Z,82.40
2022-11-27T04:13:22.940Z,82.11
2022-11-27T04:15:24.823Z,82.52
2022-11-27T04:17:27.325Z,82.50
2022-11-27T04:19:29.197Z,82.58
2022-11-27T04:21:31.050Z,82.04
2022-11-27T04:23:32.911Z,82.19
2022-11-27T04:25:34.699Z,82.23
2022-11-27T04:27:36.504Z,81.77
2022-11-27T04:29:38.327Z,81.60
2022-11-27T04:31:40.299Z,81.94
2022-11-27T04:33:42.226Z,82.17
2022-11-27T04:35:44.122Z,82.18
2022-11-27T04:37:46.029Z,82.49
2022-11-27T04:39:47.876Z,82.19
2022-11-27T04:41:49.674Z,82.37
2022-11-27T04:43:51.510Z,82.85
2022-11-27T04:45:53.433Z,82.34
2022-11-27T04:47:55.209Z,82.47
2022-11-27T04:49:57.023Z,82.22
2022-11-27T04:51:58.974Z,82.23
2022-11-27T04:54:00.875Z,82.50
2022-11-27T04:56:02.795Z,82.39
2022-11-27T04:58:04.589Z,82.44
2022-11-27T05:00:07.045Z,82.48
2022-11-27T05:02:09.920Z,82.24
2022-11-27T05:04:11.834Z,82.66
2022-11-27T05:06:13.955Z,82.64
2022-11-27T05:08:15.725Z,82.85
2022-11-27T05:10:18.651Z,82.54
2022-11-27T05:12:20.535Z,81.67
2022-11-27T05:14:27.128Z,82.43
2022-11-27T05:16:28.978Z,82.13
2022-11-27T05:18:30.820Z,82.30
2022-11-27T05:20:32.606Z,82.14
2022-11-27T05:22:34.496Z,82.56
2022-11-27T05:24:37.736Z,82.18
2022-11-27T05:26:40.238Z,82.07
2022-11-27T05:28:42.026Z,82.39
2022-11-27T05:30:43.847Z,82.29
2022-11-27T05:32:45.618Z,82.32
2022-11-27T05:34:49.812Z,82.09
2022-11-27T05:36:51.618Z,82.68
2022-11-27T05:38:53.506Z,82.49
2022-11-27T05:40:55.355Z,82.65
2022-11-27T05:42:57.219Z,82.39
2022-11-27T05:44:59.000Z,82.59
2022-11-27T05:47:00.834Z,82.48
2022-11-27T05:49:02.818Z,82.75
2022-11-27T05:51:05.417Z,82.36
2022-11-27T05:53:07.254Z,82.73
2022-11-27T05:55:09.559Z,82.70
2022-11-27T05:57:11.385Z,82.26
2022-11-27T05:59:13.241Z,82.71
2022-11-27T06:01:17.395Z,82.88
2022-11-27T06:03:19.287Z,82.62
2022-11-27T06:05:21.136Z,82.58
2022-11-27T06:07:23.089Z,82.30
2022-11-27T06:09:25.064Z,82.85
2022-11-27T06:11:26.878Z,82.69
2022-11-27T06:13:28.699Z,82.35
2022-11-27T06:15:30.485Z,82.35
2022-11-27T06:17:32.314Z,82.45
2022-11-27T06:19:34.080Z,82.55
2022-11-27T06:21:35.980Z,82.61
2022-11-27T06:23:38.074Z,82.41
2022-11-27T06:25:39.973Z,82.30
2022-11-27T06:27:42.040Z,82.25
2022-11-27T06:29:43.890Z,81.90
2022-11-27T06:31:45.757Z,82.43
2022-11-27T06:33:49.335Z,82.53
2022-11-27T06:35:51.105Z,82.37
2022-11-27T06:37:52.940Z,82.50
2022-11-27T06:39:54.736Z,82.60
2022-11-27T06:41:56.578Z,82.21
2022-11-27T06:44:00.191Z,82.38
2022-11-27T06:46:03.521Z,82.22
2022-11-27T06:48:05.510Z,82.19
2022-11-27T06:50:07.737Z,82.09
2022-11-27T06:52:09.621Z,82.29
2022-11-27T06:54:11.450Z,82.36
2022-11-27T06:56:16.551Z,82.24
2022-11-27T06:58:18.332Z,82.41
2022-11-27T07:00:20.606Z,82.42
2022-11-27T07:02:22.498Z,82.73
2022-11-27T07:04:24.341Z,82.25
2022-11-27T07:06:27.256Z,82.11
2022-11-27T07:08:29.646Z,82.31
2022-11-27T07:10:36.694Z,82.34
2022-11-27T07:12:38.482Z,82.18
2022-11-27T07:14:40.653Z,82.42
2022-11-27T07:16:42.782Z,81.89
2022-11-27T07:18:47.664Z,82.09
2022-11-27T07:20:56.442Z,82.07
2022-11-27T07:22:58.697Z,82.11
2022-11-27T07:25:00.514Z,81.98
2022-11-27T07:27:02.309Z,81.95
2022-11-27T07:29:04.234Z,82.00
2022-11-27T07:31:06.772Z,82.08
2022-11-27T07:33:08.580Z,82.35
2022-11-27T07:35:11.030Z,82.51
2022-11-27T07:37:12.820Z,82.25
2022-11-27T07:39:14.664Z,81.59
2022-11-27T07:41:17.056Z,81.81
2022-11-27T07:43:18.835Z,81.76
2022-11-27T07:45:21.796Z,82.11
2022-11-27T07:47:23.717Z,82.00
2022-11-27T07:49:25.741Z,81.48
2022-11-27T07:51:27.901Z,81.93
2022-11-27T07:53:29.745Z,81.43
2022-11-27T07:55:31.652Z,81.90
2022-11-27T07:57:33.557Z,81.21
2022-11-27T07:59:35.374Z,81.38
2022-11-27T08:01:37.333Z,81.38
2022-11-27T08:03:40.366Z,81.20
2022-11-27T08:05:42.293Z,81.38
2022-11-27T08:07:57.041Z,81.51
2022-11-27T08:09:58.973Z,81.15
2022-11-27T08:12:00.762Z,80.42
2022-11-27T08:14:05.811Z,81.05
2022-11-27T08:16:08.098Z,80.77
2022-11-27T08:18:10.020Z,80.38
2022-11-27T08:20:12.000Z,80.34
2022-11-27T08:22:15.925Z,79.88
2022-11-27T08:24:17.787Z,79.60
2022-11-27T08:26:21.054Z,79.80
2022-11-27T08:28:22.977Z,80.24
2022-11-27T08:30:24.928Z,80.00
2022-11-27T08:32:26.765Z,80.47
2022-11-27T08:34:28.584Z,80.34
2022-11-27T08:36:30.400Z,80.67
2022-11-27T08:38:33.334Z,80.57
2022-11-27T08:40:36.266Z,80.05
2022-11-27T08:42:38.138Z,80.19
2022-11-27T08:44:40.232Z,80.48
2022-11-27T08:46:43.764Z,80.01
2022-11-27T08:48:46.573Z,79.78
2022-11-27T08:50:50.119Z,79.10
2022-11-27T08:52:51.972Z,79.31
2022-11-27T08:54:57.555Z,79.55
2022-11-27T08:56:59.950Z,79.00
2022-11-27T08:59:01.913Z,78.55
2022-11-27T09:01:33.642Z,78.76
2022-11-27T09:03:35.622Z,78.12
2022-11-27T09:05:43.205Z,77.90
2022-11-27T09:07:45.228Z,78.07
2022-11-27T09:09:47.724Z,77.43
2022-11-27T09:11:49.774Z,77.92
2022-11-27T09:13:51.702Z,77.37
2022-11-27T09:15:53.627Z,78.02
2022-11-27T09:17:55.480Z,77.58
2022-11-27T09:19:57.306Z,77.05
2022-11-27T09:21:59.760Z,77.69
2022-11-27T09:24:02.425Z,77.68
2022-11-27T09:26:09.404Z,76.93
2022-11-27T09:28:11.289Z,77.17
2022-11-27T09:30:14.620Z,76.83
2022-11-27T09:32:17.041Z,77.15
2022-11-27T09:34:18.957Z,77.04
2022-11-27T09:36:23.436Z,76.40
2022-11-27T09:38:25.300Z,77.20
2022-11-27T09:40:27.109Z,76.96
2022-11-27T09:42:48.639Z,76.95
2022-11-27T09:44:59.232Z,76.78
2022-11-27T09:47:20.472Z,76.93
2022-11-27T09:49:35.625Z,77.34
2022-11-27T09:51:44.259Z,76.71
2022-11-27T09:54:16.018Z,76.50
2022-11-27T09:56:19.158Z,76.41
2022-11-27T09:58:47.241Z,76.72
2022-11-27T10:00:49.300Z,76.92
2022-11-27T10:02:51.544Z,76.58
2022-11-27T10:07:25.311Z,76.83
2022-11-27T10:09:48.123Z,76.53
2022-11-27T10:12:01.556Z,75.22
2022-11-27T10:14:27.024Z,76.04
2022-11-27T10:17:07.343Z,75.93
2022-11-27T10:19:24.361Z,75.62
2022-11-27T10:21:47.076Z,75.50
2022-11-27T10:24:10.307Z,75.32
2022-11-27T10:26:28.235Z,75.84
2022-11-27T10:29:12.732Z,76.05
2022-11-27T10:31:27.779Z,76.45
2022-11-27T10:33:44.112Z,75.75
2022-11-27T10:35:49.567Z,75.33
2022-11-27T10:38:03.653Z,75.86
2022-11-27T10:40:14.194Z,75.01
2022-11-27T10:42:22.867Z,75.07
2022-11-27T10:44:30.303Z,75.76
2022-11-27T10:46:37.911Z,75.54
2022-11-27T10:48:40.166Z,75.99
2022-11-27T10:50:43.710Z,75.95
2022-11-27T10:53:32.141Z,76.11
2022-11-27T10:56:04.918Z,75.86
2022-11-27T10:58:24.375Z,75.94
2022-11-27T11:00:27.235Z,75.66
2022-11-27T11:02:33.825Z,75.84
2022-11-27T11:04:48.356Z,76.09
2022-11-27T11:06:58.147Z,76.29
2022-11-27T11:09:34.779Z,76.35
2022-11-27T11:11:36.749Z,76.13
2022-11-27T11:13:41.499Z,76.65
2022-11-27T11:15:52.505Z,76.03
2022-11-27T11:17:54.360Z,75.52
2022-11-27T11:19:56.316Z,75.33
2022-11-27T11:22:00.976Z,74.95
2022-11-27T11:24:31.313Z,75.47
2022-11-27T11:26:45.328Z,75.94
2022-11-27T11:28:52.326Z,75.43
2022-11-27T11:30:58.510Z,75.78
2022-11-27T11:33:02.498Z,75.75
2022-11-27T11:35:27.100Z,75.37
2022-11-27T11:37:32.034Z,75.56
2022-11-27T11:39:48.551Z,75.41
2022-11-27T11:41:50.604Z,75.70
2022-11-27T11:44:01.932Z,75.46
2022-11-27T11:46:24.852Z,75.87
2022-11-27T11:48:28.037Z,76.04
2022-11-27T11:50:39.066Z,76.18
2022-11-27T11:53:02.476Z,76.05
2022-11-27T11:55:20.246Z,76.49
2022-11-27T11:57:52.163Z,76.26
2022-11-27T12:00:05.656Z,75.80
2022-11-27T12:02:31.940Z,76.45
2022-11-27T12:05:04.493Z,76.06
2022-11-27T12:07:09.204Z,76.43
2022-11-27T12:09:32.727Z,75.82
2022-11-27T12:11:53.762Z,76.39
2022-11-27T12:13:58.499Z,77.35
2022-11-27T12:16:16.403Z,76.96
2022-11-27T12:18:23.386Z,77.32
2022-11-27T12:21:03.891Z,77.02
2022-11-27T12:23:33.722Z,77.84
2022-11-27T12:25:48.573Z,76.74
2022-11-27T12:28:12.182Z,77.32
2022-11-27T12:30:23.272Z,77.44
2022-11-27T12:32:48.836Z,77.84
2022-11-27T12:35:26.200Z,77.18
2022-11-27T12:37:49.666Z,77.66
2022-11-27T12:40:25.804Z,77.81
2022-11-27T12:42:40.379Z,77.17
2022-11-27T12:45:11.252Z,77.34
2022-11-27T12:47:33.950Z,77.10
2022-11-27T12:50:03.645Z,77.00
2022-11-27T12:52:19.897Z,77.58
2022-11-27T12:54:38.446Z,77.25
2022-11-27T12:56:52.437Z,77.05
2022-11-27T12:59:05.041Z,77.13
2022-11-27T13:01:41.501Z,77.35
2022-11-27T13:04:00.328Z,77.54
2022-11-27T13:06:33.976Z,77.56
2022-11-27T13:08:55.554Z,77.76
2022-11-27T13:11:04.319Z,77.00
2022-11-27T13:13:16.226Z,77.19
2022-11-27T13:15:35.124Z,76.61
2022-11-27T13:17:42.861Z,76.49
2022-11-27T13:19:49.080Z,76.84
2022-11-27T13:21:53.416Z,76.50
2022-11-27T13:23:55.573Z,77.01
2022-11-27T13:26:00.765Z,77.22
2022-11-27T13:28:05.869Z,77.12
2022-11-27T13:30:10.265Z,76.93
2022-11-27T13:32:24.545Z,77.32
2022-11-27T13:34:30.638Z,76.86
2022-11-27T13:36:36.422Z,77.51
2022-11-27T13:38:42.243Z,77.00
2022-11-27T13:40:47.887Z,76.92
2022-11-27T13:42:55.395Z,77.02
2022-11-27T13:45:19.847Z,77.17
2022-11-27T13:47:25.137Z,77.19
2022-11-27T13:49:36.419Z,77.01
2022-11-27T13:51:40.018Z,77.27
2022-11-27T13:53:42.962Z,76.87
2022-11-27T13:55:56.943Z,77.59
2022-11-27T13:58:01.290Z,77.14
2022-11-27T14:00:03.235Z,77.71
2022-11-27T14:02:08.370Z,77.81
2022-11-27T14:04:10.840Z,78.14
2022-11-27T14:06:26.427Z,77.73
2022-11-27T14:08:35.330Z,78.36
2022-11-27T14:10:50.485Z,78.62
2022-11-27T14:12:59.885Z,78.50
2022-11-27T14:15:21.001Z,78.76
2022-11-27T14:17:43.641Z,79.19
2022-11-27T14:19:47.020Z,78.97
2022-11-27T14:21:49.497Z,78.97
2022-11-27T14:23:54.963Z,78.63
2022-11-27T14:26:14.632Z,78.78
2022-11-27T14:28:26.298Z,79.35
2022-11-27T14:30:50.907Z,79.06
2022-11-27T14:32:52.976Z,79.22
2022-11-27T14:34:54.878Z,79.29
2022-11-27T14:36:59.472Z,79.27
2022-11-27T14:39:02.932Z,79.49
2022-11-27T14:41:11.502Z,79.14
2022-11-27T14:43:20.323Z,79.24
2022-11-27T14:45:22.943Z,79.80
2022-11-27T14:47:25.950Z,79.26
2022-11-27T14:49:30.455Z,79.29
2022-11-27T14:51:37.605Z,79.82
2022-11-27T14:53:41.948Z,79.61
2022-11-27T14:55:44.671Z,79.41
2022-11-27T14:57:48.849Z,80.04
2022-11-27T15:00:21.766Z,79.89
2022-11-27T15:02:29.359Z,79.86
2022-11-27T15:04:40.762Z,79.94
2022-11-27T15:06:47.114Z,80.32
2022-11-27T15:09:03.230Z,80.89
2022-11-27T15:11:35.752Z,79.93
2022-11-27T15:13:38.823Z,80.47
2022-11-27T15:15:44.844Z,80.85
2022-11-27T15:17:50.762Z,80.85
2022-11-27T15:19:53.871Z,81.06
2022-11-27T15:21:57.329Z,80.96
2022-11-27T15:23:59.857Z,81.34
2022-11-27T15:26:16.832Z,81.32
2022-11-27T15:28:30.372Z,80.76
2022-11-27T15:30:32.489Z,80.84
2022-11-27T15:32:52.109Z,81.36
2022-11-27T15:34:55.121Z,80.97
2022-11-27T15:37:06.469Z,81.00
2022-11-27T15:39:19.983Z,81.13
2022-11-27T15:41:26.610Z,81.00
2022-11-27T15:43:28.856Z,80.82
2022-11-27T15:45:32.171Z,81.28
2022-11-27T15:47:43.531Z,81.17
2022-11-27T15:49:46.967Z,81.13
2022-11-27T15:51:50.755Z,80.88
2022-11-27T15:53:53.017Z,80.59
2022-11-27T15:55:55.160Z,80.54
2022-11-27T15:57:58.018Z,80.84
2022-11-27T16:00:00.033Z,80.90
2022-11-27T16:02:03.486Z,80.74
2022-11-27T16:04:06.060Z,81.01
2022-11-27T16:06:09.443Z,81.40
2022-11-27T16:08:11.399Z,81.21
2022-11-27T16:10:13.649Z,81.16
2022-11-27T16:12:15.967Z,81.21
2022-11-27T16:14:18.451Z,81.32
2022-11-27T16:16:23.956Z,81.03
2022-11-27T16:18:27.304Z,80.99
2022-11-27T16:20:29.348Z,80.88
2022-11-27T16:22:31.326Z,81.41
2022-11-27T16:24:42.053Z,81.36
2022-11-27T16:26:50.651Z,81.08
2022-11-27T16:31:26.948Z,81.05
2022-11-27T16:35:49.621Z,81.30
2022-11-27T16:37:54.708Z,81.10
2022-11-27T16:39:57.684Z,81.70
2022-11-27T16:42:00.745Z,81.57
2022-11-27T16:44:13.055Z,81.46
2022-11-27T16:46:28.711Z,81.66
2022-11-27T16:48:38.066Z,81.84
2022-11-27T16:50:40.039Z,81.97
2022-11-27T16:52:59.847Z,81.58
2022-11-27T16:55:13.677Z,82.05
2022-11-27T16:57:15.681Z,81.63
2022-11-27T16:59:26.818Z,81.71
2022-11-27T17:01:38.762Z,82.15
2022-11-27T17:04:16.307Z,81.71
2022-11-27T17:06:29.001Z,81.86
2022-11-27T17:08:37.938Z,81.47
2022-11-27T17:10:40.098Z,81.85
2022-11-27T17:12:42.397Z,82.46
2022-11-27T17:14:44.737Z,82.52
2022-11-27T17:16:50.985Z,82.18
2022-11-27T17:18:53.439Z,81.98
2022-11-27T17:21:03.126Z,81.82
2022-11-27T17:23:05.379Z,82.15
2022-11-27T17:25:11.871Z,82.45
2022-11-27T17:27:15.396Z,82.40
2022-11-27T17:29:22.183Z,82.29
2022-11-27T17:31:27.584Z,82.20
2022-11-27T17:33:30.174Z,82.48
2022-11-27T17:35:32.781Z,82.25
2022-11-27T17:37:35.036Z,81.81
2022-11-27T17:39:37.144Z,82.39
2022-11-27T17:41:41.069Z,82.55
2022-11-27T17:43:43.086Z,82.68
2022-11-27T17:45:45.354Z,82.85
2022-11-27T17:47:47.864Z,82.38
2022-11-27T17:49:50.288Z,82.76
2022-11-27T17:51:52.517Z,82.73
2022-11-27T17:53:54.738Z,82.91
2022-11-27T17:55:57.960Z,83.11
2022-11-27T17:58:00.373Z,83.17
2022-11-27T18:00:02.622Z,83.25
2022-11-27T18:02:05.016Z,83.05
2022-11-27T18:04:07.499Z,83.32
2022-11-27T18:06:10.624Z,83.20
2022-11-27T18:08:13.101Z,82.85
2022-11-27T18:10:18.904Z,83.36
2022-11-27T18:12:21.597Z,83.11
2022-11-27T18:14:24.090Z,82.87
2022-11-27T18:16:32.038Z,82.82
2022-11-27T18:18:34.497Z,82.84
2022-11-27T18:20:36.950Z,82.82
2022-11-27T18:22:39.240Z,83.09
2022-11-27T18:24:42.379Z,82.93
2022-11-27T18:29:12.352Z,82.38
2022-11-27T18:31:22.433Z,82.76
2022-11-27T18:33:26.373Z,83.12
2022-11-27T18:35:29.707Z,83.10
2022-11-27T18:37:31.766Z,83.11
2022-11-27T18:39:36.446Z,82.87
2022-11-27T18:41:39.232Z,82.90
2022-11-27T18:43:44.733Z,83.06
2022-11-27T18:45:47.337Z,82.89
2022-11-27T18:47:49.778Z,83.13
2022-11-27T18:49:52.807Z,83.07
2022-11-27T18:51:54.852Z,83.06
2022-11-27T18:53:57.873Z,82.64
2022-11-27T18:56:05.529Z,83.21
2022-11-27T18:58:07.913Z,82.76
2022-11-27T19:00:11.948Z,82.62
2022-11-27T19:02:14.037Z,83.00
2022-11-27T19:04:15.935Z,82.58
2022-11-27T19:06:21.210Z,82.86
2022-11-27T19:08:24.589Z,82.76
2022-11-27T19:10:26.590Z,82.78
2022-11-27T19:12:29.139Z,83.06
2022-11-27T19:14:31.671Z,83.10
2022-11-27T19:16:38.620Z,83.24
2022-11-27T19:18:41.802Z,83.35
2022-11-27T19:20:43.931Z,83.35
2022-11-27T19:22:46.402Z,83.29
2022-11-27T19:24:48.826Z,83.26
2022-11-27T19:26:51.274Z,83.24
2022-11-27T19:28:57.119Z,83.19
2022-11-27T19:31:07.964Z,83.31
2022-11-27T19:33:10.898Z,83.23
2022-11-27T19:35:13.462Z,83.40
2022-11-27T19:37:24.682Z,82.99
2022-11-27T19:39:35.317Z,83.63
2022-11-27T19:41:37.772Z,83.19
2022-11-27T19:43:40.216Z,83.21
2022-11-27T19:45:42.561Z,83.01
2022-11-27T19:47:44.676Z,83.10
2022-11-27T19:49:46.924Z,82.92
2022-11-27T19:51:49.917Z,82.74
2022-11-27T19:53:55.228Z,83.00
2022-11-27T19:55:57.664Z,82.75
2022-11-27T19:58:00.101Z,83.16
2022-11-27T20:00:02.488Z,83.07
2022-11-27T20:02:04.957Z,83.08
2022-11-27T20:04:08.420Z,82.52
2022-11-27T20:06:14.939Z,82.44
2022-11-27T20:08:18.736Z,82.84
2022-11-27T20:10:23.241Z,82.84
2022-11-27T20:12:25.208Z,82.52
2022-11-27T20:14:27.550Z,83.17
2022-11-27T20:16:30.263Z,82.72
2022-11-27T20:18:32.739Z,82.63
2022-11-27T20:20:35.152Z,82.31
2022-11-27T20:22:37.815Z,82.59
2022-11-27T20:24:58.426Z,82.80
2022-11-27T20:27:05.565Z,83.04
2022-11-27T20:29:08.433Z,82.84
2022-11-27T20:31:26.709Z,83.00
2022-11-27T20:33:29.962Z,82.94
2022-11-27T20:35:33.551Z,83.17
2022-11-27T20:37:35.960Z,84.03
2022-11-27T20:39:41.183Z,84.16
2022-11-27T20:41:47.047Z,83.80
2022-11-27T20:43:54.043Z,83.59
2022-11-27T20:45:58.920Z,83.48
2022-11-27T20:48:01.477Z,83.45
2022-11-27T20:50:05.308Z,83.81
2022-11-27T20:52:07.762Z,83.86
2022-11-27T20:54:11.324Z,83.90
2022-11-27T20:56:16.046Z,84.11
2022-11-27T20:58:17.968Z,83.95
2022-11-27T21:00:20.712Z,83.80
2022-11-27T21:02:25.835Z,83.70
2022-11-27T21:04:28.951Z,84.04
2022-11-27T21:06:33.153Z,83.90
2022-11-27T21:08:35.659Z,83.57
2022-11-27T21:10:37.675Z,84.20
2022-11-27T21:12:40.109Z,84.44
2022-11-27T21:14:44.558Z,84.42
2022-11-27T21:16:49.066Z,84.84
2022-11-27T21:19:00.166Z,85.12
2022-11-27T21:21:10.918Z,85.23
2022-11-27T21:23:14.892Z,85.24
2022-11-27T21:25:20.444Z,85.11
2022-11-27T21:27:26.055Z,85.56
2022-11-27T21:29:27.949Z,85.42
2022-11-27T21:31:34.579Z,85.26
2022-11-27T21:33:39.277Z,85.18
2022-11-27T21:35:42.244Z,85.55
2022-11-27T21:37:44.278Z,85.68
2022-11-27T21:39:47.197Z,85.11
2022-11-27T21:41:51.628Z,85.66
2022-11-27T21:43:59.951Z,85.70
2022-11-27T21:46:14.834Z,85.41
2022-11-27T21:48:16.920Z,85.61
2022-11-27T21:50:18.914Z,85.14
2022-11-27T21:52:20.907Z,85.06
2022-11-27T21:54:23.120Z,85.29
2022-11-27T21:56:27.732Z,85.51
2022-11-27T21:58:34.344Z,85.33
2022-11-27T22:00:37.040Z,85.45
2022-11-27T22:02:39.224Z,85.31
2022-11-27T22:04:41.556Z,85.25
2022-11-27T22:06:45.515Z,85.58
2022-11-27T22:09:01.678Z,85.24
2022-11-27T22:11:09.685Z,85.70
2022-11-27T22:13:11.666Z,86.13
2022-11-27T22:15:13.524Z,85.37
2022-11-27T22:17:15.580Z,85.69
2022-11-27T22:19:18.133Z,85.22
2022-11-27T22:21:20.589Z,85.12
2022-11-27T22:23:22.520Z,84.98
2022-11-27T22:25:24.527Z,85.28
2022-11-27T22:27:26.581Z,85.27
2022-11-27T22:29:29.584Z,85.80
2022-11-27T22:31:34.136Z,85.27
2022-11-27T22:33:37.224Z,85.52
2022-11-27T22:35:39.269Z,85.12
2022-11-27T22:37:41.179Z,85.44
2022-11-27T22:39:46.017Z,84.76
2022-11-27T22:41:47.863Z,85.21
2022-11-27T22:43:50.071Z,85.24
2022-11-27T22:45:52.127Z,85.26
2022-11-27T22:47:54.497Z,85.31
2022-11-27T22:49:56.618Z,85.61
2022-11-27T22:51:58.636Z,85.06
2022-11-27T22:54:03.762Z,85.37
2022-11-27T22:56:08.314Z,85.44
2022-11-27T22:58:13.444Z,85.56
2022-11-27T23:00:15.736Z,85.40
2022-11-27T23:02:18.429Z,85.03
2022-11-27T23:04:20.417Z,85.23
2022-11-27T23:06:23.932Z,85.14
2022-11-27T23:08:25.876Z,85.48
2022-11-27T23:10:27.715Z,85.60
2022-11-27T23:12:29.562Z,85.41
2022-11-27T23:14:31.408Z,84.67
2022-11-27T23:16:33.788Z,84.94
2022-11-27T23:18:36.231Z,85.13
2022-11-27T23:20:42.711Z,85.24
2022-11-27T23:22:44.566Z,84.95
2022-11-27T23:24:46.357Z,85.05
2022-11-27T23:26:48.399Z,85.38
2022-11-27T23:28:53.863Z,85.64
2022-11-27T23:31:22.399Z,84.92
2022-11-27T23:33:17.569Z,84.77
2022-11-27T23:35:19.407Z,85.19
2022-11-27T23:37:21.260Z,84.94
2022-11-27T23:39:23.279Z,85.00
2022-11-27T23:41:26.177Z,85.14
2022-11-27T23:43:28.747Z,85.62
2022-11-27T23:45:30.642Z,85.25
2022-11-27T23:47:32.712Z,85.40
2022-11-27T23:49:34.537Z,85.71
2022-11-27T23:51:36.595Z,85.70
2022-11-27T23:53:38.728Z,85.05
2022-11-27T23:55:40.528Z,85.23
2022-11-27T23:57:42.418Z,85.37
2022-11-27T23:59:44.402Z,85.80
